createdAt,value
2017-08-25T00:00:27.300Z,112.50
2017-08-25T00:01:27.300Z,90.00
2017-08-25T00:02:27.367Z,112.50
2017-08-25T00:03:27.281Z,112.50
2017-08-25T00:04:27.329Z,112.50
2017-08-25T00:05:27.321Z,135.00
2017-08-25T00:06:27.310Z,112.50
2017-08-25T00:07:27.279Z,67.50
2017-08-25T00:08:27.296Z,67.50
2017-08-25T00:09:27.301Z,45.00
2017-08-25T00:10:27.328Z,67.50
2017-08-25T00:11:27.353Z,90.00
2017-08-25T00:12:27.346Z,67.50
2017-08-25T00:13:27.327Z,67.50
2017-08-25T00:14:27.329Z,67.50
2017-08-25T00:15:27.287Z,67.50
2017-08-25T00:16:27.287Z,67.50
2017-08-25T00:17:27.315Z,112.50
2017-08-25T00:18:27.309Z,112.50
2017-08-25T00:19:27.314Z,112.50
2017-08-25T00:20:27.357Z,112.50
2017-08-25T00:21:27.289Z,90.00
2017-08-25T00:22:27.332Z,67.50
2017-08-25T00:23:27.308Z,67.50
2017-08-25T00:24:27.286Z,45.00
2017-08-25T00:25:27.335Z,45.00
2017-08-25T00:26:27.381Z,90.00
2017-08-25T00:27:27.366Z,112.50
2017-08-25T00:28:27.370Z,90.00
2017-08-25T00:29:27.369Z,67.50
2017-08-25T00:30:27.319Z,67.50
2017-08-25T00:31:27.371Z,67.50
2017-08-25T00:32:27.324Z,67.50
2017-08-25T00:33:27.354Z,67.50
2017-08-25T00:34:27.414Z,67.50
2017-08-25T00:35:27.353Z,45.00
2017-08-25T00:36:27.420Z,67.50
2017-08-25T00:37:27.348Z,45.00
2017-08-25T00:38:27.355Z,45.00
2017-08-25T00:39:27.351Z,90.00
2017-08-25T00:40:27.385Z,90.00
2017-08-25T00:41:27.393Z,67.50
2017-08-25T00:42:27.320Z,67.50
2017-08-25T00:43:27.350Z,67.50
2017-08-25T00:44:27.424Z,67.50
2017-08-25T00:45:27.385Z,67.50
2017-08-25T00:46:27.323Z,67.50
2017-08-25T00:47:27.319Z,45.00
2017-08-25T00:48:27.261Z,67.50
2017-08-25T00:49:27.327Z,22.50
2017-08-25T00:50:27.344Z,45.00
2017-08-25T00:51:27.345Z,67.50
2017-08-25T00:52:27.310Z,112.50
2017-08-25T00:53:27.308Z,112.50
2017-08-25T00:54:27.317Z,112.50
2017-08-25T00:55:27.343Z,90.00
2017-08-25T00:56:27.346Z,90.00
2017-08-25T00:57:27.386Z,135.00
2017-08-25T00:58:27.428Z,135.00
2017-08-25T00:59:27.405Z,135.00
2017-08-25T01:00:27.356Z,67.50
2017-08-25T01:01:27.436Z,67.50
2017-08-25T01:02:27.397Z,67.50
2017-08-25T01:03:27.429Z,67.50
2017-08-25T01:04:27.344Z,45.00
2017-08-25T01:05:27.431Z,45.00
2017-08-25T01:06:27.393Z,45.00
2017-08-25T01:07:27.350Z,22.50
2017-08-25T01:08:27.319Z,22.50
2017-08-25T01:09:27.316Z,22.50
2017-08-25T01:10:27.363Z,22.50
2017-08-25T01:11:27.338Z,22.50
2017-08-25T01:12:27.291Z,22.50
2017-08-25T01:13:27.341Z,22.50
2017-08-25T01:14:27.371Z,22.50
2017-08-25T01:15:27.367Z,22.50
2017-08-25T01:16:27.358Z,22.50
2017-08-25T01:17:27.370Z,45.00
2017-08-25T01:18:27.409Z,45.00
2017-08-25T01:19:27.442Z,45.00
2017-08-25T01:20:27.379Z,45.00
2017-08-25T01:21:27.402Z,45.00
2017-08-25T01:22:27.375Z,45.00
2017-08-25T01:23:27.422Z,45.00
2017-08-25T01:24:27.378Z,45.00
2017-08-25T01:25:27.375Z,45.00
2017-08-25T01:26:27.407Z,45.00
2017-08-25T01:27:27.382Z,22.50
2017-08-25T01:28:27.352Z,22.50
2017-08-25T01:29:27.388Z,22.50
2017-08-25T01:30:27.365Z,45.00
2017-08-25T01:31:27.406Z,90.00
2017-08-25T01:32:27.428Z,112.50
2017-08-25T01:33:27.386Z,112.50
2017-08-25T01:34:27.383Z,112.50
2017-08-25T01:35:27.444Z,112.50
2017-08-25T01:36:27.427Z,90.00
2017-08-25T01:37:27.385Z,90.00
2017-08-25T01:38:27.412Z,90.00
2017-08-25T01:39:27.349Z,90.00
2017-08-25T01:40:27.380Z,90.00
2017-08-25T01:41:27.418Z,90.00
2017-08-25T01:42:27.384Z,112.50
2017-08-25T01:43:27.390Z,90.00
2017-08-25T01:44:27.417Z,90.00
2017-08-25T01:45:27.390Z,112.50
2017-08-25T01:46:27.418Z,112.50
2017-08-25T01:47:27.465Z,135.00
2017-08-25T01:48:27.398Z,112.50
2017-08-25T01:49:27.510Z,112.50
2017-08-25T01:50:27.392Z,90.00
2017-08-25T01:51:27.432Z,67.50
2017-08-25T01:52:27.458Z,67.50
2017-08-25T01:53:27.388Z,67.50
2017-08-25T01:54:27.438Z,67.50
2017-08-25T01:55:27.441Z,67.50
2017-08-25T01:56:27.461Z,67.50
2017-08-25T01:57:27.406Z,67.50
2017-08-25T01:58:27.461Z,90.00
2017-08-25T01:59:27.462Z,90.00
2017-08-25T02:00:27.462Z,90.00
2017-08-25T02:01:27.397Z,67.50
2017-08-25T02:02:27.445Z,67.50
2017-08-25T02:03:27.369Z,45.00
2017-08-25T02:04:27.473Z,22.50
2017-08-25T02:05:27.448Z,0.00
2017-08-25T02:06:27.393Z,22.50
2017-08-25T02:07:27.426Z,45.00
2017-08-25T02:08:27.426Z,22.50
2017-08-25T02:09:27.368Z,67.50
2017-08-25T02:10:27.397Z,45.00
2017-08-25T02:11:27.432Z,22.50
2017-08-25T02:12:27.400Z,22.50
2017-08-25T02:13:27.434Z,22.50
2017-08-25T02:14:27.431Z,22.50
2017-08-25T02:15:27.403Z,0.00
2017-08-25T02:16:27.402Z,22.50
2017-08-25T02:17:27.408Z,22.50
2017-08-25T02:18:27.442Z,22.50
2017-08-25T02:19:27.471Z,45.00
2017-08-25T02:20:27.475Z,45.00
2017-08-25T02:21:27.435Z,67.50
2017-08-25T02:22:27.382Z,67.50
2017-08-25T02:23:27.417Z,45.00
2017-08-25T02:24:27.438Z,45.00
2017-08-25T02:25:27.484Z,45.00
2017-08-25T02:26:27.438Z,45.00
2017-08-25T02:27:27.397Z,22.50
2017-08-25T02:28:27.385Z,22.50
2017-08-25T02:29:27.422Z,22.50
2017-08-25T02:30:27.388Z,45.00
2017-08-25T02:31:27.478Z,67.50
2017-08-25T02:32:27.489Z,67.50
2017-08-25T02:33:27.421Z,67.50
2017-08-25T02:34:27.418Z,67.50
2017-08-25T02:35:27.459Z,67.50
2017-08-25T02:36:27.463Z,67.50
2017-08-25T02:37:27.527Z,90.00
2017-08-25T02:38:27.461Z,67.50
2017-08-25T02:39:27.430Z,67.50
2017-08-25T02:40:27.419Z,67.50
2017-08-25T02:41:27.424Z,67.50
2017-08-25T02:42:27.465Z,67.50
2017-08-25T02:43:27.497Z,90.00
2017-08-25T02:44:27.449Z,90.00
2017-08-25T02:45:27.488Z,90.00
2017-08-25T02:46:27.417Z,90.00
2017-08-25T02:47:27.405Z,67.50
2017-08-25T02:48:27.491Z,90.00
2017-08-25T02:49:27.408Z,112.50
2017-08-25T02:50:27.401Z,90.00
2017-08-25T02:51:27.491Z,135.00
2017-08-25T02:52:27.436Z,90.00
2017-08-25T02:53:27.460Z,135.00
2017-08-25T02:54:27.426Z,157.50
2017-08-25T02:55:27.490Z,135.00
2017-08-25T02:56:27.432Z,90.00
2017-08-25T02:57:27.472Z,135.00
2017-08-25T02:58:27.408Z,90.00
2017-08-25T02:59:27.530Z,90.00
2017-08-25T03:00:27.405Z,90.00
2017-08-25T03:01:27.426Z,90.00
2017-08-25T03:02:27.496Z,112.50
2017-08-25T03:03:27.464Z,112.50
2017-08-25T03:04:27.502Z,67.50
2017-08-25T03:05:27.446Z,90.00
2017-08-25T03:06:27.460Z,157.50
2017-08-25T03:07:27.439Z,180.00
2017-08-25T03:08:27.473Z,112.50
2017-08-25T03:09:27.461Z,112.50
2017-08-25T03:10:27.508Z,135.00
2017-08-25T03:11:27.498Z,112.50
2017-08-25T03:12:27.416Z,157.50
2017-08-25T03:13:27.415Z,180.00
2017-08-25T03:14:27.485Z,157.50
2017-08-25T03:15:27.508Z,157.50
2017-08-25T03:16:27.483Z,157.50
2017-08-25T03:17:27.433Z,180.00
2017-08-25T03:18:27.436Z,90.00
2017-08-25T03:19:27.437Z,90.00
2017-08-25T03:20:27.437Z,90.00
2017-08-25T03:21:27.471Z,157.50
2017-08-25T03:22:27.492Z,180.00
2017-08-25T03:23:27.438Z,157.50
2017-08-25T03:24:27.414Z,135.00
2017-08-25T03:25:27.413Z,90.00
2017-08-25T03:26:27.473Z,112.50
2017-08-25T03:27:27.496Z,157.50
2017-08-25T03:28:27.529Z,112.50
2017-08-25T03:29:27.479Z,90.00
2017-08-25T03:30:27.485Z,90.00
2017-08-25T03:31:27.484Z,112.50
2017-08-25T03:32:27.461Z,135.00
2017-08-25T03:33:27.434Z,157.50
2017-08-25T03:34:27.459Z,157.50
2017-08-25T03:35:27.481Z,157.50
2017-08-25T03:36:27.538Z,157.50
2017-08-25T03:37:27.422Z,202.50
2017-08-25T03:38:27.451Z,157.50
2017-08-25T03:39:27.483Z,112.50
2017-08-25T03:40:27.450Z,112.50
2017-08-25T03:41:27.451Z,135.00
2017-08-25T03:42:27.424Z,112.50
2017-08-25T03:43:27.426Z,90.00
2017-08-25T03:44:27.427Z,45.00
2017-08-25T03:45:27.455Z,45.00
2017-08-25T03:46:27.428Z,157.50
2017-08-25T03:47:27.488Z,67.50
2017-08-25T03:48:27.459Z,112.50
2017-08-25T03:49:27.490Z,157.50
2017-08-25T03:50:27.504Z,135.00
2017-08-25T03:51:27.561Z,180.00
2017-08-25T03:52:27.442Z,225.00
2017-08-25T03:53:27.464Z,135.00
2017-08-25T03:54:27.442Z,112.50
2017-08-25T03:55:27.448Z,135.00
2017-08-25T03:56:27.474Z,180.00
2017-08-25T03:57:27.435Z,67.50
2017-08-25T03:58:27.465Z,90.00
2017-08-25T03:59:27.498Z,67.50
2017-08-25T04:00:27.500Z,157.50
2017-08-25T04:01:27.465Z,67.50
2017-08-25T04:02:27.464Z,67.50
2017-08-25T04:03:27.505Z,67.50
2017-08-25T04:04:27.505Z,112.50
2017-08-25T04:05:27.439Z,135.00
2017-08-25T04:06:27.504Z,135.00
2017-08-25T04:07:27.442Z,90.00
2017-08-25T04:08:27.470Z,112.50
2017-08-25T04:09:27.529Z,157.50
2017-08-25T04:10:27.536Z,157.50
2017-08-25T04:11:27.472Z,157.50
2017-08-25T04:12:27.501Z,45.00
2017-08-25T04:13:27.450Z,135.00
2017-08-25T04:14:27.474Z,112.50
2017-08-25T04:15:27.475Z,112.50
2017-08-25T04:16:27.545Z,112.50
2017-08-25T04:17:27.501Z,90.00
2017-08-25T04:18:27.464Z,90.00
2017-08-25T04:19:27.472Z,90.00
2017-08-25T04:20:27.466Z,112.50
2017-08-25T04:21:27.450Z,112.50
2017-08-25T04:22:27.439Z,90.00
2017-08-25T04:23:27.451Z,135.00
2017-08-25T04:24:27.449Z,157.50
2017-08-25T04:25:27.454Z,112.50
2017-08-25T04:26:27.427Z,90.00
2017-08-25T04:27:27.395Z,67.50
2017-08-25T04:28:27.511Z,135.00
2017-08-25T04:29:27.439Z,90.00
2017-08-25T04:30:27.453Z,67.50
2017-08-25T04:31:27.453Z,135.00
2017-08-25T04:32:27.439Z,90.00
2017-08-25T04:33:27.462Z,135.00
2017-08-25T04:34:27.477Z,135.00
2017-08-25T04:35:27.511Z,112.50
2017-08-25T04:36:27.470Z,90.00
2017-08-25T04:37:27.471Z,67.50
2017-08-25T04:38:27.485Z,90.00
2017-08-25T04:39:27.469Z,90.00
2017-08-25T04:40:27.525Z,135.00
2017-08-25T04:41:27.442Z,112.50
2017-08-25T04:42:27.480Z,112.50
2017-08-25T04:43:27.481Z,112.50
2017-08-25T04:44:27.492Z,67.50
2017-08-25T04:45:27.440Z,90.00
2017-08-25T04:46:27.496Z,90.00
2017-08-25T04:47:27.484Z,67.50
2017-08-25T04:48:27.458Z,135.00
2017-08-25T04:49:27.519Z,90.00
2017-08-25T04:50:27.519Z,112.50
2017-08-25T04:51:27.460Z,135.00
2017-08-25T04:52:27.525Z,67.50
2017-08-25T04:53:27.489Z,90.00
2017-08-25T04:54:27.528Z,90.00
2017-08-25T04:55:27.531Z,112.50
2017-08-25T04:56:27.465Z,135.00
2017-08-25T04:57:27.650Z,90.00
2017-08-25T04:58:27.467Z,112.50
2017-08-25T04:59:27.465Z,135.00
2017-08-25T05:00:27.467Z,112.50
2017-08-25T05:01:27.496Z,157.50
2017-08-25T05:02:27.499Z,157.50
2017-08-25T05:03:27.469Z,112.50
2017-08-25T05:04:27.532Z,90.00
2017-08-25T05:05:27.528Z,157.50
2017-08-25T05:06:27.537Z,112.50
2017-08-25T05:07:27.549Z,135.00
2017-08-25T05:08:27.476Z,157.50
2017-08-25T05:09:27.502Z,112.50
2017-08-25T05:10:27.485Z,135.00
2017-08-25T05:11:27.543Z,90.00
2017-08-25T05:12:27.575Z,90.00
2017-08-25T05:13:27.553Z,90.00
2017-08-25T05:14:27.480Z,90.00
2017-08-25T05:15:27.480Z,90.00
2017-08-25T05:16:27.508Z,157.50
2017-08-25T05:17:27.518Z,90.00
2017-08-25T05:18:27.579Z,157.50
2017-08-25T05:19:27.487Z,112.50
2017-08-25T05:20:27.539Z,135.00
2017-08-25T05:21:27.514Z,157.50
2017-08-25T05:22:27.574Z,157.50
2017-08-25T05:23:27.511Z,157.50
2017-08-25T05:24:27.517Z,157.50
2017-08-25T05:25:27.578Z,135.00
2017-08-25T05:26:27.497Z,135.00
2017-08-25T05:27:27.489Z,135.00
2017-08-25T05:28:27.511Z,112.50
2017-08-25T05:29:27.586Z,135.00
2017-08-25T05:30:27.494Z,202.50
2017-08-25T05:31:27.490Z,202.50
2017-08-25T05:32:27.586Z,157.50
2017-08-25T05:33:27.503Z,135.00
2017-08-25T05:34:27.521Z,112.50
2017-08-25T05:35:27.561Z,67.50
2017-08-25T05:36:27.558Z,157.50
2017-08-25T05:37:27.525Z,180.00
2017-08-25T05:38:27.517Z,180.00
2017-08-25T05:39:27.558Z,90.00
2017-08-25T05:40:27.521Z,157.50
2017-08-25T05:41:27.517Z,135.00
2017-08-25T05:42:27.553Z,157.50
2017-08-25T05:43:27.521Z,180.00
2017-08-25T05:44:27.550Z,202.50
2017-08-25T05:45:27.522Z,202.50
2017-08-25T05:46:27.558Z,157.50
2017-08-25T05:47:27.553Z,202.50
2017-08-25T05:48:27.554Z,180.00
2017-08-25T05:49:27.492Z,180.00
2017-08-25T05:50:27.523Z,202.50
2017-08-25T05:51:27.559Z,180.00
2017-08-25T05:52:27.497Z,180.00
2017-08-25T05:53:27.502Z,180.00
2017-08-25T05:54:27.559Z,225.00
2017-08-25T05:55:27.526Z,225.00
2017-08-25T05:56:27.498Z,225.00
2017-08-25T05:57:27.532Z,180.00
2017-08-25T05:58:27.501Z,202.50
2017-08-25T05:59:27.561Z,180.00
2017-08-25T06:00:27.565Z,225.00
2017-08-25T06:01:27.564Z,112.50
2017-08-25T06:02:27.562Z,67.50
2017-08-25T06:03:27.503Z,90.00
2017-08-25T06:04:27.534Z,90.00
2017-08-25T06:05:27.567Z,90.00
2017-08-25T06:06:27.590Z,135.00
2017-08-25T06:07:27.567Z,112.50
2017-08-25T06:08:27.539Z,90.00
2017-08-25T06:09:27.492Z,67.50
2017-08-25T06:10:27.538Z,157.50
2017-08-25T06:11:27.468Z,135.00
2017-08-25T06:12:27.533Z,135.00
2017-08-25T06:13:27.514Z,90.00
2017-08-25T06:14:27.658Z,90.00
2017-08-25T06:15:27.515Z,112.50
2017-08-25T06:16:27.586Z,90.00
2017-08-25T06:17:27.497Z,157.50
2017-08-25T06:18:27.549Z,157.50
2017-08-25T06:19:27.536Z,112.50
2017-08-25T06:20:27.523Z,90.00
2017-08-25T06:21:27.516Z,67.50
2017-08-25T06:22:27.492Z,112.50
2017-08-25T06:23:27.476Z,67.50
2017-08-25T06:24:27.541Z,67.50
2017-08-25T06:25:27.550Z,90.00
2017-08-25T06:26:27.552Z,90.00
2017-08-25T06:27:27.551Z,90.00
2017-08-25T06:28:27.527Z,67.50
2017-08-25T06:29:27.591Z,90.00
2017-08-25T06:30:27.529Z,45.00
2017-08-25T06:31:27.589Z,67.50
2017-08-25T06:32:27.602Z,157.50
2017-08-25T06:33:27.621Z,157.50
2017-08-25T06:34:27.605Z,135.00
2017-08-25T06:35:27.567Z,157.50
2017-08-25T06:36:27.672Z,157.50
2017-08-25T06:37:27.617Z,180.00
2017-08-25T06:38:27.594Z,45.00
2017-08-25T06:39:27.604Z,67.50
2017-08-25T06:40:27.607Z,90.00
2017-08-25T06:41:27.610Z,157.50
2017-08-25T06:42:27.628Z,157.50
2017-08-25T06:43:27.627Z,135.00
2017-08-25T06:44:27.635Z,67.50
2017-08-25T06:45:27.568Z,67.50
2017-08-25T06:46:27.544Z,135.00
2017-08-25T06:47:27.577Z,135.00
2017-08-25T06:48:27.534Z,157.50
2017-08-25T06:49:27.536Z,90.00
2017-08-25T06:50:27.562Z,112.50
2017-08-25T06:51:27.568Z,90.00
2017-08-25T06:52:27.601Z,135.00
2017-08-25T06:53:27.534Z,135.00
2017-08-25T06:54:27.585Z,112.50
2017-08-25T06:55:27.537Z,112.50
2017-08-25T06:56:27.601Z,180.00
2017-08-25T06:57:27.587Z,90.00
2017-08-25T06:58:27.648Z,90.00
2017-08-25T06:59:27.573Z,112.50
2017-08-25T07:00:27.640Z,112.50
2017-08-25T07:01:27.543Z,180.00
2017-08-25T07:02:27.554Z,135.00
2017-08-25T07:03:27.642Z,157.50
2017-08-25T07:04:27.622Z,112.50
2017-08-25T07:05:27.642Z,157.50
2017-08-25T07:06:27.586Z,157.50
2017-08-25T07:07:27.643Z,157.50
2017-08-25T07:08:27.555Z,180.00
2017-08-25T07:09:27.572Z,157.50
2017-08-25T07:10:27.555Z,135.00
2017-08-25T07:11:27.573Z,112.50
2017-08-25T07:12:27.529Z,135.00
2017-08-25T07:13:27.618Z,157.50
2017-08-25T07:14:27.557Z,135.00
2017-08-25T07:15:27.548Z,157.50
2017-08-25T07:16:27.552Z,112.50
2017-08-25T07:17:27.561Z,112.50
2017-08-25T07:18:27.547Z,112.50
2017-08-25T07:19:27.611Z,135.00
2017-08-25T07:20:27.550Z,135.00
2017-08-25T07:21:27.560Z,135.00
2017-08-25T07:22:27.625Z,135.00
2017-08-25T07:23:27.646Z,90.00
2017-08-25T07:24:27.635Z,112.50
2017-08-25T07:26:27.584Z,180.00
2017-08-25T07:27:27.556Z,180.00
2017-08-25T07:28:27.623Z,180.00
2017-08-25T07:29:27.583Z,90.00
2017-08-25T07:30:27.625Z,135.00
2017-08-25T07:31:27.586Z,180.00
2017-08-25T07:32:27.672Z,180.00
2017-08-25T07:33:27.572Z,180.00
2017-08-25T07:34:27.622Z,180.00
2017-08-25T07:35:27.619Z,157.50
2017-08-25T07:36:27.632Z,135.00
2017-08-25T07:37:27.591Z,135.00
2017-08-25T07:38:27.604Z,157.50
2017-08-25T07:39:27.595Z,112.50
2017-08-25T07:40:27.603Z,90.00
2017-08-25T07:41:27.609Z,180.00
2017-08-25T07:42:27.569Z,112.50
2017-08-25T07:43:27.610Z,180.00
2017-08-25T07:44:27.666Z,90.00
2017-08-25T07:45:27.612Z,112.50
2017-08-25T07:46:27.702Z,90.00
2017-08-25T07:47:27.569Z,157.50
2017-08-25T07:48:27.571Z,135.00
2017-08-25T07:49:27.572Z,157.50
2017-08-25T07:50:27.666Z,112.50
2017-08-25T07:51:27.614Z,90.00
2017-08-25T07:52:27.613Z,135.00
2017-08-25T07:53:27.635Z,112.50
2017-08-25T07:54:27.633Z,90.00
2017-08-25T07:55:27.647Z,112.50
2017-08-25T07:56:27.674Z,90.00
2017-08-25T07:57:27.645Z,112.50
2017-08-25T07:58:27.599Z,157.50
2017-08-25T07:59:27.644Z,135.00
2017-08-25T08:00:27.577Z,157.50
2017-08-25T08:01:27.596Z,157.50
2017-08-25T08:02:27.589Z,90.00
2017-08-25T08:03:27.585Z,112.50
2017-08-25T08:04:27.581Z,45.00
2017-08-25T08:05:27.616Z,67.50
2017-08-25T08:06:27.612Z,180.00
2017-08-25T08:07:27.579Z,157.50
2017-08-25T08:08:27.644Z,135.00
2017-08-25T08:09:27.579Z,135.00
2017-08-25T08:10:27.609Z,90.00
2017-08-25T08:11:27.609Z,67.50
2017-08-25T08:12:27.608Z,90.00
2017-08-25T08:13:27.608Z,202.50
2017-08-25T08:14:27.585Z,135.00
2017-08-25T08:15:27.584Z,112.50
2017-08-25T08:16:27.648Z,180.00
2017-08-25T08:17:27.644Z,180.00
2017-08-25T08:18:27.614Z,180.00
2017-08-25T08:19:27.590Z,157.50
2017-08-25T08:20:27.557Z,90.00
2017-08-25T08:21:27.602Z,180.00
2017-08-25T08:22:27.661Z,225.00
2017-08-25T08:23:27.601Z,292.50
2017-08-25T08:24:27.661Z,180.00
2017-08-25T08:26:27.619Z,90.00
2017-08-25T08:27:27.570Z,112.50
2017-08-25T08:28:27.621Z,90.00
2017-08-25T08:29:27.623Z,157.50
2017-08-25T08:30:27.653Z,157.50
2017-08-25T08:31:27.702Z,112.50
2017-08-25T08:32:27.625Z,90.00
2017-08-25T08:33:27.655Z,45.00
2017-08-25T08:34:27.652Z,157.50
2017-08-25T08:35:27.620Z,270.00
2017-08-25T08:36:27.598Z,270.00
2017-08-25T08:37:27.658Z,337.50
2017-08-25T08:38:27.631Z,247.50
2017-08-25T08:39:27.552Z,225.00
2017-08-25T08:40:27.625Z,270.00
2017-08-25T08:41:27.578Z,202.50
2017-08-25T08:42:27.611Z,67.50
2017-08-25T08:43:27.598Z,180.00
2017-08-25T08:44:27.624Z,180.00
2017-08-25T08:45:27.608Z,112.50
2017-08-25T08:46:27.634Z,112.50
2017-08-25T08:47:27.609Z,157.50
2017-08-25T08:48:27.633Z,180.00
2017-08-25T08:49:27.681Z,225.00
2017-08-25T08:50:27.629Z,90.00
2017-08-25T08:51:27.668Z,135.00
2017-08-25T08:52:27.613Z,270.00
2017-08-25T08:53:27.701Z,180.00
2017-08-25T08:54:27.642Z,90.00
2017-08-25T08:55:27.698Z,225.00
2017-08-25T08:56:27.636Z,112.50
2017-08-25T08:57:27.655Z,202.50
2017-08-25T08:58:27.646Z,202.50
2017-08-25T08:59:27.636Z,157.50
2017-08-25T09:00:27.649Z,180.00
2017-08-25T09:01:27.644Z,90.00
2017-08-25T09:02:27.599Z,180.00
2017-08-25T09:03:27.684Z,225.00
2017-08-25T09:04:27.608Z,135.00
2017-08-25T09:05:27.639Z,270.00
2017-08-25T09:06:27.642Z,225.00
2017-08-25T09:07:27.684Z,180.00
2017-08-25T09:08:27.625Z,90.00
2017-08-25T09:09:27.660Z,157.50
2017-08-25T09:11:27.718Z,112.50
2017-08-25T09:12:27.623Z,112.50
2017-08-25T09:13:27.686Z,292.50
2017-08-25T09:14:27.628Z,225.00
2017-08-25T09:15:27.688Z,135.00
2017-08-25T09:16:27.718Z,112.50
2017-08-25T09:17:27.658Z,135.00
2017-08-25T09:18:27.681Z,135.00
2017-08-25T09:19:27.625Z,90.00
2017-08-25T09:20:27.632Z,112.50
2017-08-25T09:21:27.722Z,90.00
2017-08-25T09:22:27.629Z,67.50
2017-08-25T09:23:27.662Z,90.00
2017-08-25T09:24:27.634Z,112.50
2017-08-25T09:25:27.654Z,67.50
2017-08-25T09:26:27.653Z,90.00
2017-08-25T09:27:27.685Z,135.00
2017-08-25T09:28:27.685Z,247.50
2017-08-25T09:29:27.639Z,270.00
2017-08-25T09:30:27.657Z,180.00
2017-08-25T09:31:27.692Z,90.00
2017-08-25T09:32:27.696Z,90.00
2017-08-25T09:33:27.643Z,67.50
2017-08-25T09:34:27.661Z,247.50
2017-08-25T09:35:27.634Z,270.00
2017-08-25T09:36:27.665Z,247.50
2017-08-25T09:37:27.700Z,270.00
2017-08-25T09:38:27.640Z,247.50
2017-08-25T09:39:27.672Z,202.50
2017-08-25T09:40:27.666Z,157.50
2017-08-25T09:41:27.639Z,225.00
2017-08-25T09:42:27.641Z,135.00
2017-08-25T09:43:27.672Z,292.50
2017-08-25T09:44:27.742Z,157.50
2017-08-25T09:45:27.679Z,157.50
2017-08-25T09:46:27.645Z,157.50
2017-08-25T09:47:27.719Z,270.00
2017-08-25T09:48:27.680Z,225.00
2017-08-25T09:49:27.733Z,225.00
2017-08-25T09:50:27.685Z,270.00
2017-08-25T09:51:27.648Z,270.00
2017-08-25T09:52:27.680Z,292.50
2017-08-25T09:53:27.680Z,292.50
2017-08-25T09:54:27.667Z,270.00
2017-08-25T09:55:27.651Z,270.00
2017-08-25T09:56:27.728Z,247.50
2017-08-25T09:57:27.689Z,225.00
2017-08-25T09:58:27.705Z,270.00
2017-08-25T09:59:27.655Z,292.50
2017-08-25T10:00:27.671Z,180.00
2017-08-25T10:01:27.744Z,135.00
2017-08-25T10:02:27.718Z,180.00
2017-08-25T10:03:27.691Z,270.00
2017-08-25T10:04:27.744Z,225.00
2017-08-25T10:05:27.726Z,270.00
2017-08-25T10:06:27.746Z,270.00
2017-08-25T10:07:27.658Z,225.00
2017-08-25T10:08:27.678Z,180.00
2017-08-25T10:09:27.696Z,180.00
2017-08-25T10:10:27.696Z,270.00
2017-08-25T10:11:27.723Z,270.00
2017-08-25T10:12:27.653Z,247.50
2017-08-25T10:13:27.687Z,247.50
2017-08-25T10:14:27.767Z,270.00
2017-08-25T10:15:27.745Z,225.00
2017-08-25T10:16:27.754Z,225.00
2017-08-25T10:17:27.723Z,180.00
2017-08-25T10:18:27.717Z,180.00
2017-08-25T10:19:27.718Z,225.00
2017-08-25T10:20:27.714Z,270.00
2017-08-25T10:21:27.653Z,247.50
2017-08-25T10:22:27.686Z,292.50
2017-08-25T10:23:27.687Z,202.50
2017-08-25T10:24:27.695Z,202.50
2017-08-25T10:25:27.722Z,270.00
2017-08-25T10:26:27.661Z,247.50
2017-08-25T10:27:27.702Z,180.00
2017-08-25T10:28:27.694Z,225.00
2017-08-25T10:29:27.667Z,270.00
2017-08-25T10:30:27.671Z,292.50
2017-08-25T10:31:27.732Z,202.50
2017-08-25T10:32:27.725Z,225.00
2017-08-25T10:33:27.743Z,180.00
2017-08-25T10:34:27.725Z,247.50
2017-08-25T10:35:27.709Z,270.00
2017-08-25T10:36:27.699Z,180.00
2017-08-25T10:37:27.691Z,270.00
2017-08-25T10:38:27.769Z,247.50
2017-08-25T10:39:27.746Z,247.50
2017-08-25T10:40:27.771Z,247.50
2017-08-25T10:41:27.764Z,247.50
2017-08-25T10:42:27.693Z,247.50
2017-08-25T10:43:27.714Z,247.50
2017-08-25T10:44:27.714Z,270.00
2017-08-25T10:45:27.774Z,225.00
2017-08-25T10:46:27.713Z,270.00
2017-08-25T10:47:27.767Z,202.50
2017-08-25T10:48:27.679Z,135.00
2017-08-25T10:49:27.773Z,292.50
2017-08-25T10:50:27.681Z,270.00
2017-08-25T10:51:27.766Z,247.50
2017-08-25T10:52:27.679Z,292.50
2017-08-25T10:53:27.716Z,292.50
2017-08-25T10:54:27.686Z,292.50
2017-08-25T10:55:27.683Z,292.50
2017-08-25T10:56:27.683Z,270.00
2017-08-25T10:57:27.719Z,270.00
2017-08-25T10:58:27.771Z,202.50
2017-08-25T10:59:27.705Z,270.00
2017-08-25T11:00:27.663Z,247.50
2017-08-25T11:01:27.681Z,292.50
2017-08-25T11:02:27.672Z,292.50
2017-08-25T11:03:27.745Z,292.50
2017-08-25T11:04:27.710Z,292.50
2017-08-25T11:05:27.680Z,270.00
2017-08-25T11:06:27.643Z,270.00
2017-08-25T11:07:27.695Z,270.00
2017-08-25T11:08:27.640Z,157.50
2017-08-25T11:09:27.762Z,247.50
2017-08-25T11:10:27.727Z,247.50
2017-08-25T11:11:27.762Z,247.50
2017-08-25T11:12:27.727Z,202.50
2017-08-25T11:13:27.693Z,270.00
2017-08-25T11:14:27.728Z,247.50
2017-08-25T11:15:27.769Z,270.00
2017-08-25T11:16:27.783Z,292.50
2017-08-25T11:17:27.761Z,270.00
2017-08-25T11:18:27.740Z,292.50
2017-08-25T11:19:27.729Z,292.50
2017-08-25T11:20:27.722Z,270.00
2017-08-25T11:21:27.695Z,292.50
2017-08-25T11:22:27.762Z,270.00
2017-08-25T11:23:27.721Z,247.50
2017-08-25T11:24:27.651Z,180.00
2017-08-25T11:25:27.724Z,225.00
2017-08-25T11:26:27.672Z,292.50
2017-08-25T11:27:27.725Z,270.00
2017-08-25T11:28:27.768Z,180.00
2017-08-25T11:29:27.800Z,270.00
2017-08-25T11:30:27.731Z,90.00
2017-08-25T11:31:27.775Z,225.00
2017-08-25T11:32:27.792Z,180.00
2017-08-25T11:33:27.705Z,247.50
2017-08-25T11:34:27.778Z,270.00
2017-08-25T11:35:27.762Z,247.50
2017-08-25T11:36:27.793Z,202.50
2017-08-25T11:37:27.705Z,247.50
2017-08-25T11:38:27.711Z,270.00
2017-08-25T11:39:27.763Z,270.00
2017-08-25T11:40:27.735Z,202.50
2017-08-25T11:41:27.770Z,247.50
2017-08-25T11:42:27.729Z,202.50
2017-08-25T11:43:27.764Z,202.50
2017-08-25T11:44:27.764Z,225.00
2017-08-25T11:45:27.767Z,202.50
2017-08-25T11:46:27.705Z,225.00
2017-08-25T11:47:27.707Z,292.50
2017-08-25T11:48:27.705Z,157.50
2017-08-25T11:49:27.650Z,180.00
2017-08-25T11:50:27.702Z,225.00
2017-08-25T11:51:27.696Z,202.50
2017-08-25T11:52:27.693Z,247.50
2017-08-25T11:53:27.696Z,247.50
2017-08-25T11:54:27.732Z,270.00
2017-08-25T11:55:27.715Z,247.50
2017-08-25T11:56:27.729Z,292.50
2017-08-25T11:57:27.732Z,247.50
2017-08-25T11:58:27.714Z,270.00
2017-08-25T11:59:27.794Z,270.00
2017-08-25T12:00:27.711Z,292.50
2017-08-25T12:01:27.710Z,270.00
2017-08-25T12:02:27.743Z,315.00
2017-08-25T12:03:27.758Z,292.50
2017-08-25T12:04:27.743Z,225.00
2017-08-25T12:05:27.747Z,270.00
2017-08-25T12:06:27.745Z,247.50
2017-08-25T12:07:27.714Z,247.50
2017-08-25T12:08:27.781Z,247.50
2017-08-25T12:09:27.786Z,247.50
2017-08-25T12:10:27.744Z,157.50
2017-08-25T12:11:27.743Z,270.00
2017-08-25T12:12:27.697Z,247.50
2017-08-25T12:13:27.743Z,270.00
2017-08-25T12:14:27.750Z,247.50
2017-08-25T12:15:27.707Z,270.00
2017-08-25T12:16:27.799Z,270.00
2017-08-25T12:17:27.684Z,157.50
2017-08-25T12:18:27.703Z,270.00
2017-08-25T12:19:27.817Z,157.50
2017-08-25T12:20:27.762Z,112.50
2017-08-25T12:21:27.761Z,225.00
2017-08-25T12:22:27.826Z,247.50
2017-08-25T12:23:27.807Z,292.50
2017-08-25T12:24:27.765Z,292.50
2017-08-25T12:25:27.737Z,247.50
2017-08-25T12:26:27.750Z,292.50
2017-08-25T12:27:27.743Z,270.00
2017-08-25T12:28:27.797Z,270.00
2017-08-25T12:29:27.808Z,202.50
2017-08-25T12:30:27.813Z,225.00
2017-08-25T12:31:27.777Z,247.50
2017-08-25T12:32:27.809Z,225.00
2017-08-25T12:33:27.768Z,270.00
2017-08-25T12:34:27.815Z,315.00
2017-08-25T12:35:27.802Z,247.50
2017-08-25T12:36:27.768Z,270.00
2017-08-25T12:37:27.839Z,157.50
2017-08-25T12:38:27.743Z,135.00
2017-08-25T12:39:27.839Z,135.00